createdAt,value
2022-11-20T00:01:14.329Z,19.00
2022-11-20T00:04:17.000Z,18.97
2022-11-20T00:07:19.571Z,18.99
2022-11-20T00:10:22.700Z,18.96
2022-11-20T00:13:24.791Z,19.01
2022-11-20T00:16:29.692Z,18.97
2022-11-20T00:19:32.439Z,18.97
2022-11-20T00:22:35.001Z,19.03
2022-11-20T00:25:37.126Z,19.04
2022-11-20T00:28:39.943Z,19.01
2022-11-20T00:31:42.168Z,19.03
2022-11-20T00:34:44.848Z,19.00
2022-11-20T00:37:47.380Z,18.99
2022-11-20T00:40:56.527Z,19.04
2022-11-20T00:43:58.591Z,19.01
2022-11-20T00:47:00.988Z,19.01
2022-11-20T00:50:03.460Z,19.07
2022-11-20T00:53:06.169Z,19.08
2022-11-20T00:56:12.301Z,19.01
2022-11-20T00:59:14.813Z,18.80
2022-11-20T01:02:17.801Z,18.69
2022-11-20T01:05:20.340Z,18.66
2022-11-20T01:08:22.645Z,18.53
2022-11-20T01:11:30.699Z,18.43
2022-11-20T01:14:32.723Z,18.43
2022-11-20T01:17:35.498Z,18.39
2022-11-20T01:20:38.100Z,18.36
2022-11-20T01:23:43.168Z,18.33
2022-11-20T01:26:48.295Z,18.32
2022-11-20T01:29:50.625Z,18.30
2022-11-20T01:32:52.710Z,18.30
2022-11-20T01:36:05.699Z,18.28
2022-11-20T01:39:16.582Z,18.28
2022-11-20T01:42:37.948Z,18.25
2022-11-20T01:45:51.683Z,18.22
2022-11-20T01:49:03.473Z,18.16
2022-11-20T01:52:20.228Z,18.13
2022-11-20T01:55:26.849Z,18.09
2022-11-20T01:58:33.414Z,18.09
2022-11-20T02:01:36.206Z,18.04
2022-11-20T02:04:38.503Z,18.04
2022-11-20T02:07:42.382Z,18.01
2022-11-20T02:10:44.808Z,17.98
2022-11-20T02:13:48.063Z,17.94
2022-11-20T02:16:51.887Z,17.92
2022-11-20T02:19:55.321Z,17.91
2022-11-20T02:23:06.345Z,17.91
2022-11-20T02:26:13.825Z,17.86
2022-11-20T02:29:20.534Z,17.82
2022-11-20T02:32:29.859Z,17.78
2022-11-20T02:35:32.507Z,17.71
2022-11-20T02:38:36.061Z,17.68
2022-11-20T02:41:39.549Z,17.68
2022-11-20T02:44:42.428Z,17.67
2022-11-20T02:47:44.768Z,17.61
2022-11-20T02:50:48.950Z,17.64
2022-11-20T02:53:51.130Z,17.67
2022-11-20T02:56:53.574Z,17.64
2022-11-20T02:59:55.720Z,17.63
2022-11-20T03:02:58.775Z,17.61
2022-11-20T03:06:01.269Z,17.60
2022-11-20T03:09:03.888Z,17.58
2022-11-20T03:12:06.532Z,17.60
2022-11-20T03:15:10.101Z,17.54
2022-11-20T03:18:12.244Z,17.55
2022-11-20T03:21:16.400Z,17.53
2022-11-20T03:24:18.601Z,17.53
2022-11-20T03:27:21.266Z,17.51
2022-11-20T03:30:29.260Z,17.53
2022-11-20T03:33:33.224Z,17.51
2022-11-20T03:36:35.475Z,17.50
2022-11-20T03:39:38.309Z,17.50
2022-11-20T03:42:46.263Z,17.47
2022-11-20T03:45:49.048Z,17.45
2022-11-20T03:48:52.322Z,17.41
2022-11-20T03:51:55.581Z,17.41
2022-11-20T03:54:58.159Z,17.44
2022-11-20T03:58:01.258Z,17.43
2022-11-20T04:01:16.084Z,17.41
2022-11-20T04:04:19.118Z,17.40
2022-11-20T04:07:21.319Z,17.41
2022-11-20T04:10:24.417Z,17.38
2022-11-20T04:13:26.381Z,17.38
2022-11-20T04:16:34.873Z,17.37
2022-11-20T04:19:37.025Z,17.40
2022-11-20T04:22:39.629Z,17.38
2022-11-20T04:25:41.629Z,17.38
2022-11-20T04:28:44.638Z,17.38
2022-11-20T04:31:46.601Z,17.40
2022-11-20T04:34:48.863Z,17.37
2022-11-20T04:37:53.593Z,17.35
2022-11-20T04:41:04.948Z,17.38
2022-11-20T04:44:07.431Z,17.33
2022-11-20T04:47:10.037Z,17.34
2022-11-20T04:50:12.774Z,17.35
2022-11-20T04:53:15.662Z,17.33
2022-11-20T04:56:18.109Z,17.34
2022-11-20T04:59:21.082Z,17.31
2022-11-20T05:02:24.422Z,17.35
2022-11-20T05:05:27.150Z,17.33
2022-11-20T05:08:30.183Z,17.35
2022-11-20T05:11:33.319Z,17.34
2022-11-20T05:14:36.011Z,17.31
2022-11-20T05:17:38.413Z,17.34
2022-11-20T05:20:40.665Z,17.34
2022-11-20T05:23:43.988Z,17.34
2022-11-20T05:26:46.281Z,17.30
2022-11-20T05:29:48.668Z,17.33
2022-11-20T05:32:50.851Z,17.34
2022-11-20T05:35:53.674Z,17.31
2022-11-20T05:39:01.343Z,17.28
2022-11-20T05:42:23.072Z,17.30
2022-11-20T05:45:25.105Z,17.28
2022-11-20T05:48:28.046Z,17.28
2022-11-20T05:51:30.071Z,17.30
2022-11-20T05:54:32.752Z,17.28
2022-11-20T05:57:35.111Z,17.28
2022-11-20T06:00:37.854Z,17.28
2022-11-20T06:03:41.472Z,17.30
2022-11-20T06:06:43.846Z,17.30
2022-11-20T06:09:46.032Z,17.27
2022-11-20T06:12:48.445Z,17.24
2022-11-20T06:15:54.372Z,17.26
2022-11-20T06:18:57.408Z,17.26
2022-11-20T06:21:59.824Z,17.28
2022-11-20T06:25:02.459Z,17.28
2022-11-20T06:28:04.591Z,17.26
2022-11-20T06:31:08.188Z,17.28
2022-11-20T06:34:10.658Z,17.28
2022-11-20T06:37:13.534Z,17.31
2022-11-20T06:40:15.721Z,17.31
2022-11-20T06:43:18.126Z,17.28
2022-11-20T06:46:21.076Z,17.30
2022-11-20T06:49:23.978Z,17.31
2022-11-20T06:52:26.372Z,17.30
2022-11-20T06:55:29.145Z,17.31
2022-11-20T06:58:33.142Z,17.35
2022-11-20T07:01:36.287Z,17.37
2022-11-20T07:04:38.443Z,17.37
2022-11-20T07:07:41.634Z,17.38
2022-11-20T07:10:44.330Z,17.38
2022-11-20T07:13:47.798Z,17.35
2022-11-20T07:16:50.454Z,17.34
2022-11-20T07:19:52.849Z,17.44
2022-11-20T07:22:58.570Z,17.47
2022-11-20T07:26:13.619Z,17.44
2022-11-20T07:29:16.666Z,17.51
2022-11-20T07:32:19.573Z,17.51
2022-11-20T07:35:21.866Z,17.48
2022-11-20T07:38:24.396Z,17.48
2022-11-20T07:41:27.572Z,17.45
2022-11-20T07:44:29.894Z,17.43
2022-11-20T07:47:37.513Z,17.43
2022-11-20T07:50:40.812Z,17.45
2022-11-20T07:53:43.034Z,17.41
2022-11-20T07:56:46.408Z,17.43
2022-11-20T07:59:48.730Z,17.44
2022-11-20T08:02:51.561Z,17.47
2022-11-20T08:05:53.705Z,17.47
2022-11-20T08:08:56.598Z,17.47
2022-11-20T08:12:17.057Z,17.40
2022-11-20T08:15:20.219Z,17.45
2022-11-20T08:18:31.717Z,17.45
2022-11-20T08:21:38.385Z,17.53
2022-11-20T08:24:41.512Z,17.55
2022-11-20T08:27:44.225Z,17.55
2022-11-20T08:30:47.482Z,17.47
2022-11-20T08:33:50.825Z,17.44
2022-11-20T08:36:53.285Z,17.47
2022-11-20T08:39:58.177Z,17.44
2022-11-20T08:43:00.387Z,17.45
2022-11-20T08:46:03.129Z,17.48
2022-11-20T08:49:07.202Z,17.53
2022-11-20T08:52:11.255Z,17.53
2022-11-20T08:55:13.614Z,17.53
2022-11-20T08:58:16.284Z,17.53
2022-11-20T09:01:18.672Z,17.57
2022-11-20T09:04:21.339Z,17.57
2022-11-20T09:07:23.754Z,17.58
2022-11-20T09:10:27.372Z,17.61
2022-11-20T09:13:31.011Z,17.61
2022-11-20T09:16:34.297Z,17.61
2022-11-20T09:19:36.626Z,17.58
2022-11-20T09:22:41.755Z,17.60
2022-11-20T09:25:44.426Z,17.58
2022-11-20T09:28:47.297Z,17.64
2022-11-20T09:31:49.990Z,17.60
2022-11-20T09:34:52.703Z,17.60
2022-11-20T09:37:56.167Z,17.64
2022-11-20T09:41:08.383Z,17.65
2022-11-20T09:44:47.069Z,17.63
2022-11-20T09:47:56.036Z,17.55
2022-11-20T09:51:35.547Z,17.61
2022-11-20T09:54:41.953Z,17.64
2022-11-20T09:57:48.220Z,17.64
2022-11-20T10:00:52.663Z,17.63
2022-11-20T10:04:11.917Z,17.65
2022-11-20T10:07:40.116Z,17.65
2022-11-20T10:10:52.414Z,17.70
2022-11-20T10:14:27.081Z,17.73
2022-11-20T10:17:59.998Z,17.71
2022-11-20T10:21:15.263Z,17.65
2022-11-20T10:24:48.909Z,17.74
2022-11-20T10:28:07.679Z,17.73
2022-11-20T10:31:16.264Z,17.73
2022-11-20T10:34:26.908Z,17.75
2022-11-20T10:37:32.242Z,17.79
2022-11-20T10:40:47.935Z,17.77
2022-11-20T10:44:05.086Z,17.78
2022-11-20T10:47:14.252Z,17.78
2022-11-20T10:50:22.421Z,17.82
2022-11-20T10:53:54.652Z,17.79
2022-11-20T10:57:07.823Z,17.82
2022-11-20T11:00:12.396Z,17.74
2022-11-20T11:03:32.479Z,17.81
2022-11-20T11:06:45.208Z,17.86
2022-11-20T11:09:58.153Z,17.88
2022-11-20T11:13:01.014Z,17.88
2022-11-20T11:16:04.977Z,17.84
2022-11-20T11:19:15.049Z,17.85
2022-11-20T11:22:19.404Z,17.85
2022-11-20T11:25:31.632Z,17.85
2022-11-20T11:28:34.543Z,17.86
2022-11-20T11:31:37.238Z,17.86
2022-11-20T11:34:39.474Z,17.88
2022-11-20T11:37:41.822Z,17.82
2022-11-20T11:40:46.192Z,17.89
2022-11-20T11:44:36.166Z,17.88
2022-11-20T11:47:45.369Z,17.88
2022-11-20T11:50:53.332Z,17.91
2022-11-20T11:53:55.613Z,17.86
2022-11-20T11:57:11.369Z,17.92
2022-11-20T12:00:18.050Z,17.96
2022-11-20T12:03:28.476Z,17.95
2022-11-20T12:06:32.673Z,17.95
2022-11-20T12:09:42.673Z,17.95
2022-11-20T12:12:50.670Z,17.98
2022-11-20T12:15:54.801Z,17.94
2022-11-20T12:18:56.995Z,17.96
2022-11-20T12:22:18.454Z,17.98
2022-11-20T12:25:36.793Z,17.98
2022-11-20T12:29:14.143Z,17.96
2022-11-20T12:32:16.255Z,17.88
2022-11-20T12:35:44.447Z,17.94
2022-11-20T12:38:53.547Z,18.06
2022-11-20T12:46:20.048Z,18.25
2022-11-20T12:53:25.214Z,18.46
2022-11-20T12:56:30.723Z,18.46
2022-11-20T12:59:52.353Z,18.49
2022-11-20T13:03:10.361Z,18.47
2022-11-20T13:06:33.056Z,18.53
2022-11-20T13:09:46.863Z,18.56
2022-11-20T13:13:00.415Z,18.60
2022-11-20T13:16:14.241Z,18.61
2022-11-20T13:19:18.268Z,18.71
2022-11-20T13:22:44.073Z,18.70
2022-11-20T13:25:46.350Z,18.73
2022-11-20T13:29:00.768Z,18.77
2022-11-20T13:32:19.582Z,18.86
2022-11-20T13:35:29.458Z,18.89
2022-11-20T13:38:52.767Z,18.91
2022-11-20T13:42:01.212Z,18.97
2022-11-20T13:45:10.297Z,18.93
2022-11-20T13:48:23.717Z,18.97
2022-11-20T13:51:28.740Z,18.99
2022-11-20T13:55:06.816Z,19.03
2022-11-20T13:58:33.718Z,18.87
2022-11-20T14:01:36.398Z,18.77
2022-11-20T14:04:44.937Z,18.70
2022-11-20T14:07:49.155Z,18.67
2022-11-20T14:10:51.416Z,18.61
2022-11-20T14:14:42.439Z,18.55
2022-11-20T14:17:44.548Z,18.53
2022-11-20T14:20:47.903Z,18.50
2022-11-20T14:23:50.075Z,18.52
2022-11-20T14:26:53.867Z,18.42
2022-11-20T14:29:56.535Z,18.39
2022-11-20T14:33:04.669Z,18.39
2022-11-20T14:36:07.044Z,18.37
2022-11-20T14:39:13.482Z,18.36
2022-11-20T14:42:34.907Z,18.32
2022-11-20T14:45:39.360Z,18.33
2022-11-20T14:48:48.915Z,18.29
2022-11-20T14:52:02.640Z,18.26
2022-11-20T14:55:15.429Z,18.26
2022-11-20T14:58:45.497Z,18.24
2022-11-20T15:06:14.068Z,18.29
2022-11-20T15:09:19.416Z,18.46
2022-11-20T15:12:51.204Z,18.59
2022-11-20T15:16:05.385Z,18.63
2022-11-20T15:19:19.051Z,18.66
2022-11-20T15:22:22.231Z,18.71
2022-11-20T15:25:25.971Z,18.71
2022-11-20T15:28:32.970Z,18.77
2022-11-20T15:31:36.243Z,18.74
2022-11-20T15:34:38.703Z,18.73
2022-11-20T15:37:41.459Z,18.80
2022-11-20T15:40:44.283Z,18.81
2022-11-20T15:43:46.845Z,18.84
2022-11-20T15:46:49.931Z,18.91
2022-11-20T15:49:52.148Z,18.94
2022-11-20T15:52:54.897Z,18.97
2022-11-20T15:55:56.920Z,19.00
2022-11-20T15:59:00.066Z,19.06
2022-11-20T16:02:02.280Z,19.03
2022-11-20T16:05:05.459Z,19.06
2022-11-20T16:08:11.672Z,19.07
2022-11-20T16:11:17.688Z,19.11
2022-11-20T16:14:38.305Z,19.14
2022-11-20T16:17:46.182Z,19.14
2022-11-20T16:20:53.365Z,19.11
2022-11-20T16:23:56.517Z,19.07
2022-11-20T16:26:58.561Z,19.04
2022-11-20T16:30:01.081Z,19.12
2022-11-20T16:33:04.722Z,19.21
2022-11-20T16:36:13.874Z,19.28
2022-11-20T16:39:21.911Z,19.34
2022-11-20T16:42:26.439Z,19.35
2022-11-20T16:45:33.602Z,19.38
2022-11-20T16:48:36.434Z,19.34
2022-11-20T16:51:38.857Z,19.30
2022-11-20T16:54:41.163Z,19.28
2022-11-20T16:57:43.294Z,19.27
2022-11-20T17:00:51.382Z,19.28
2022-11-20T17:03:59.267Z,19.32
2022-11-20T17:07:07.885Z,19.31
2022-11-20T17:10:10.404Z,19.35
2022-11-20T17:13:12.667Z,19.36
2022-11-20T17:16:17.475Z,19.41
2022-11-20T17:19:21.596Z,19.44
2022-11-20T17:22:25.085Z,19.41
2022-11-20T17:25:28.219Z,19.41
2022-11-20T17:28:32.417Z,19.47
2022-11-20T17:31:35.784Z,19.54
2022-11-20T17:34:37.878Z,19.59
2022-11-20T17:37:40.357Z,19.61
2022-11-20T17:40:42.438Z,19.58
2022-11-20T17:43:45.839Z,19.61
2022-11-20T17:46:49.404Z,19.59
2022-11-20T17:49:52.941Z,19.38
2022-11-20T17:52:55.022Z,19.34
2022-11-20T17:56:17.469Z,19.15
2022-11-20T17:59:19.816Z,19.22
2022-11-20T18:02:22.828Z,19.24
2022-11-20T18:05:27.183Z,19.32
2022-11-20T18:08:29.548Z,19.41
2022-11-20T18:11:34.790Z,19.36
2022-11-20T18:14:37.424Z,19.31
2022-11-20T18:17:40.123Z,19.24
2022-11-20T18:20:43.677Z,19.17
2022-11-20T18:23:45.573Z,19.14
2022-11-20T18:26:48.033Z,19.10
2022-11-20T18:29:52.341Z,19.01
2022-11-20T18:32:55.920Z,19.00
2022-11-20T18:35:58.205Z,18.97
2022-11-20T18:39:01.783Z,18.94
2022-11-20T18:42:22.424Z,18.91
2022-11-20T18:45:39.943Z,18.90
2022-11-20T18:48:49.470Z,18.81
2022-11-20T18:51:51.681Z,18.80
2022-11-20T18:54:54.745Z,18.76
2022-11-20T18:58:04.587Z,18.73
2022-11-20T19:01:08.852Z,18.70
2022-11-20T19:04:13.272Z,18.63
2022-11-20T19:07:15.975Z,18.64
2022-11-20T19:10:20.452Z,18.66
2022-11-20T19:13:22.521Z,18.63
2022-11-20T19:16:25.198Z,18.57
2022-11-20T19:19:29.420Z,18.55
2022-11-20T19:22:32.034Z,18.57
2022-11-20T19:25:37.892Z,18.55
2022-11-20T19:28:40.966Z,18.50
2022-11-20T19:31:43.885Z,18.49
2022-11-20T19:34:46.104Z,18.45
2022-11-20T19:37:49.381Z,18.47
2022-11-20T19:40:52.379Z,18.43
2022-11-20T19:43:56.937Z,18.45
2022-11-20T19:47:00.063Z,18.42
2022-11-20T19:50:04.108Z,18.46
2022-11-20T19:53:08.120Z,18.56
2022-11-20T19:56:11.287Z,18.67
2022-11-20T19:59:14.407Z,18.67
2022-11-20T20:02:17.198Z,18.71
2022-11-20T20:05:20.578Z,18.79
2022-11-20T20:08:22.833Z,18.79
2022-11-20T20:11:29.501Z,18.70
2022-11-20T20:14:32.286Z,18.74
2022-11-20T20:17:34.787Z,18.86
2022-11-20T20:20:36.747Z,18.91
2022-11-20T20:23:40.302Z,18.90
2022-11-20T20:26:42.555Z,19.00
2022-11-20T20:29:46.024Z,19.03
2022-11-20T20:32:53.263Z,19.04
2022-11-20T20:35:59.425Z,19.10
2022-11-20T20:39:03.061Z,19.12
2022-11-20T20:42:05.657Z,19.18
2022-11-20T20:45:09.020Z,19.21
2022-11-20T20:48:11.794Z,19.20
2022-11-20T20:51:14.830Z,19.21
2022-11-20T20:54:17.414Z,19.18
2022-11-20T20:57:19.962Z,19.12
2022-11-20T21:00:22.666Z,19.12
2022-11-20T21:03:32.970Z,19.04
2022-11-20T21:06:37.952Z,19.01
2022-11-20T21:09:40.489Z,19.06
2022-11-20T21:12:46.870Z,18.94
2022-11-20T21:15:50.866Z,18.81
2022-11-20T21:18:53.857Z,18.81
2022-11-20T21:22:05.412Z,18.94
2022-11-20T21:25:08.378Z,18.87
2022-11-20T21:28:15.484Z,18.89
2022-11-20T21:31:26.924Z,18.69
2022-11-20T21:34:29.534Z,18.57
2022-11-20T21:37:33.387Z,18.60
2022-11-20T21:40:38.218Z,18.64
2022-11-20T21:43:41.131Z,18.35
2022-11-20T21:46:45.357Z,18.67
2022-11-20T21:49:47.695Z,18.69
2022-11-20T21:52:49.675Z,18.76
2022-11-20T21:55:56.603Z,18.61
2022-11-20T21:58:59.105Z,18.91
2022-11-20T22:02:02.351Z,19.01
2022-11-20T22:05:04.659Z,19.15
2022-11-20T22:08:07.411Z,19.18
2022-11-20T22:11:13.118Z,19.27
2022-11-20T22:14:23.824Z,19.17
2022-11-20T22:17:45.526Z,19.22
2022-11-20T22:20:50.360Z,19.21
2022-11-20T22:23:53.237Z,19.21
2022-11-20T22:26:56.260Z,19.15
2022-11-20T22:29:58.400Z,19.10
2022-11-20T22:33:01.911Z,19.00
2022-11-20T22:36:12.696Z,18.91
2022-11-20T22:39:15.106Z,18.81
2022-11-20T22:42:18.044Z,18.99
2022-11-20T22:45:22.979Z,18.91
2022-11-20T22:48:27.144Z,18.94
2022-11-20T22:51:33.131Z,18.79
2022-11-20T22:54:36.728Z,18.56
2022-11-20T22:57:39.452Z,18.66
2022-11-20T23:00:41.454Z,18.09
2022-11-20T23:03:46.690Z,18.64
2022-11-20T23:06:48.892Z,18.67
2022-11-20T23:09:51.344Z,19.11
2022-11-20T23:12:54.581Z,19.08
2022-11-20T23:16:04.628Z,19.25
2022-11-20T23:19:08.978Z,19.21
2022-11-20T23:22:12.162Z,19.30
2022-11-20T23:25:14.657Z,19.38
2022-11-20T23:28:17.242Z,19.39
2022-11-20T23:31:21.418Z,19.47
2022-11-20T23:34:26.235Z,19.45
2022-11-20T23:37:28.612Z,19.52
2022-11-20T23:40:31.190Z,19.45
2022-11-20T23:43:34.211Z,19.52
2022-11-20T23:46:36.746Z,19.51
2022-11-20T23:49:38.798Z,19.52
2022-11-20T23:52:41.422Z,19.52
2022-11-20T23:55:51.948Z,19.55
2022-11-20T23:58:54.579Z,19.52
